Time;durP1;ratioP1;P1;durP2;ratioP2;P2;SDS_P1;SDS_P2;PMS_P1;PMS_P2;Temp;Humidity;BMP_temperature;BMP_pressure;BME280_temperature;BME280_humidity;BME280_pressure;Samples;Min_cycle;Max_cycle;Signal;HPM_P1;HPM_P2
2022/10/23 00:01:22;;;;;;;9.43;4.97;;;10.20;96.80;;;;;;5029504;28;20271;-58
2022/10/23 00:03:51;;;;;;;9.23;5.33;;;10.20;96.80;;;;;;5039525;28;20528;-59
2022/10/23 00:06:17;;;;;;;8.57;5.60;;;10.00;96.80;;;;;;5035435;28;20189;-59
2022/10/23 00:08:44;;;;;;;7.07;5.07;;;10.10;96.80;;;;;;5058475;28;20190;-59
2022/10/23 00:11:12;;;;;;;5.83;4.40;;;10.10;96.80;;;;;;5035522;28;20429;-59
2022/10/23 00:13:38;;;;;;;6.30;4.80;;;10.10;96.80;;;;;;5057027;28;20191;-59
2022/10/23 00:16:04;;;;;;;8.50;5.00;;;10.10;96.80;;;;;;5024125;28;20547;-59
2022/10/23 00:18:30;;;;;;;6.47;5.77;;;10.10;96.80;;;;;;5032024;28;20182;-59
2022/10/23 00:20:56;;;;;;;6.17;5.03;;;10.10;96.80;;;;;;5050722;28;20187;-59
2022/10/23 00:23:22;;;;;;;7.73;6.03;;;10.10;96.90;;;;;;5062528;28;20194;-59
2022/10/23 00:25:47;;;;;;;6.63;5.07;;;10.20;96.90;;;;;;5029698;28;20198;-59
2022/10/23 00:28:13;;;;;;;9.33;5.90;;;10.20;96.80;;;;;;5014726;28;20190;-59
2022/10/23 00:30:39;;;;;;;7.03;5.37;;;10.10;96.90;;;;;;5018388;28;20278;-58
2022/10/23 00:33:05;;;;;;;7.17;5.90;;;10.10;96.90;;;;;;5007817;28;20255;-59
2022/10/23 00:35:30;;;;;;;8.00;5.47;;;10.20;96.80;;;;;;5037236;28;20275;-59
2022/10/23 00:37:56;;;;;;;5.20;4.60;;;10.10;96.80;;;;;;5016288;28;20195;-58
2022/10/23 00:40:22;;;;;;;8.07;5.43;;;10.10;96.80;;;;;;5015575;28;20188;-59
2022/10/23 00:42:47;;;;;;;6.13;5.30;;;10.00;96.80;;;;;;5021495;28;20218;-59
2022/10/23 00:45:19;;;;;;;9.07;5.03;;;10.00;96.80;;;;;;5023218;28;20278;-58
2022/10/23 00:47:44;;;;;;;5.00;4.50;;;10.10;96.80;;;;;;5038110;28;20187;-59
2022/10/23 00:50:10;;;;;;;6.23;5.13;;;10.00;96.80;;;;;;5014717;28;20255;-59
2022/10/23 00:52:40;;;;;;;6.97;5.20;;;9.80;96.80;;;;;;5039353;28;20306;-59
2022/10/23 00:55:06;;;;;;;7.23;5.33;;;9.90;96.80;;;;;;5033393;28;20269;-58
2022/10/23 00:57:32;;;;;;;7.53;4.60;;;10.00;96.80;;;;;;5019405;28;20449;-59
2022/10/23 00:59:57;;;;;;;6.97;4.77;;;10.00;96.80;;;;;;5046919;28;20188;-59
2022/10/23 01:02:23;;;;;;;8.13;5.23;;;9.90;96.80;;;;;;5052055;28;20264;-58
2022/10/23 01:04:49;;;;;;;6.67;5.47;;;9.80;96.80;;;;;;5025745;28;20194;-58
2022/10/23 01:07:27;;;;;;;6.37;5.17;;;9.90;96.80;;;;;;5020472;28;20187;-58
2022/10/23 01:10:14;;;;;;;9.33;5.07;;;9.90;96.80;;;;;;5071406;28;20190;-59
2022/10/23 01:12:51;;;;;;;7.40;5.00;;;9.90;96.80;;;;;;5028011;28;20434;-59
2022/10/23 01:15:25;;;;;;;8.70;4.93;;;9.90;96.80;;;;;;5047564;28;20421;-59
2022/10/23 01:18:25;;;;;;;5.93;4.47;;;9.90;96.70;;;;;;5027750;28;20955;-58
2022/10/23 01:21:04;;;;;;;9.97;5.50;;;9.80;96.70;;;;;;5032304;28;20437;-58
2022/10/23 01:24:05;;;;;;;5.97;4.60;;;9.80;96.70;;;;;;5038706;28;20183;-59
2022/10/23 01:26:57;;;;;;;5.97;5.07;;;9.60;96.60;;;;;;4998509;28;20516;-58
2022/10/23 01:29:50;;;;;;;7.33;4.50;;;9.60;96.60;;;;;;4999219;28;20465;-59
2022/10/23 01:32:42;;;;;;;5.70;4.90;;;9.60;96.60;;;;;;5035754;28;20433;-59
2022/10/23 01:35:36;;;;;;;6.80;4.73;;;9.60;96.60;;;;;;5011657;28;20226;-59
2022/10/23 01:38:17;;;;;;;6.30;5.17;;;9.60;96.60;;;;;;5075440;28;20440;-59
2022/10/23 01:41:03;;;;;;;6.10;5.37;;;9.60;96.70;;;;;;5036441;28;20433;-58
2022/10/23 01:43:43;;;;;;;7.13;5.17;;;9.60;96.70;;;;;;5030078;28;20428;-58
2022/10/23 01:46:13;;;;;;;6.23;4.97;;;9.70;96.70;;;;;;5042162;28;20443;-59
2022/10/23 01:48:41;;;;;;;5.57;4.57;;;9.70;96.70;;;;;;5037101;28;20528;-58
2022/10/23 01:51:10;;;;;;;6.07;5.37;;;9.70;96.70;;;;;;5035520;28;20430;-59
2022/10/23 01:53:40;;;;;;;7.87;5.30;;;9.70;96.70;;;;;;5036058;28;20524;-59
2022/10/23 01:56:10;;;;;;;6.37;5.17;;;9.70;96.70;;;;;;5037136;28;20295;-58
2022/10/23 01:58:37;;;;;;;6.63;5.27;;;9.70;96.70;;;;;;5072118;28;20437;-59
2022/10/23 02:01:06;;;;;;;8.97;6.03;;;9.70;96.70;;;;;;5035131;28;20418;-59
2022/10/23 02:03:34;;;;;;;5.53;4.67;;;9.70;96.60;;;;;;5035796;28;20413;-58
2022/10/23 02:06:00;;;;;;;8.87;5.30;;;9.50;96.70;;;;;;5034514;28;20467;-58
2022/10/23 02:08:26;;;;;;;7.53;5.77;;;9.60;96.70;;;;;;5017690;28;20450;-59
2022/10/23 02:10:55;;;;;;;9.73;5.23;;;9.60;96.70;;;;;;5045295;28;20191;-58
2022/10/23 02:13:38;;;;;;;11.20;5.50;;;9.70;96.70;;;;;;5035512;28;20437;-58
2022/10/23 02:16:04;;;;;;;4.97;3.80;;;9.60;96.70;;;;;;5080518;28;20218;-58
2022/10/23 02:18:35;;;;;;;6.33;4.60;;;9.50;96.60;;;;;;5027542;28;20488;-58
2022/10/23 02:21:06;;;;;;;5.97;4.50;;;9.40;96.60;;;;;;5043743;28;20187;-58
2022/10/23 02:23:39;;;;;;;5.93;4.90;;;9.40;96.60;;;;;;5048729;28;20449;-58
2022/10/23 02:26:22;;;;;;;5.70;4.60;;;9.30;96.60;;;;;;5077821;28;20432;-58
2022/10/23 02:29:02;;;;;;;6.40;3.97;;;9.30;96.50;;;;;;5069423;28;20523;-59
2022/10/23 02:31:27;;;;;;;6.37;4.30;;;9.30;96.50;;;;;;5074823;28;20487;-59
2022/10/23 02:33:53;;;;;;;5.17;3.80;;;9.30;96.50;;;;;;5029358;28;20440;-59
2022/10/23 02:36:19;;;;;;;4.47;4.07;;;9.30;96.50;;;;;;5054455;28;20222;-59
2022/10/23 02:38:45;;;;;;;4.43;4.03;;;9.30;96.50;;;;;;5022291;28;20248;-59
2022/10/23 02:41:43;;;;;;;5.93;4.30;;;9.10;96.50;;;;;;5021591;28;20186;-59
2022/10/23 02:44:33;;;;;;;6.03;5.00;;;9.00;96.60;;;;;;5068456;28;20660;-59
2022/10/23 02:47:14;;;;;;;8.23;4.20;;;9.10;96.50;;;;;;5038749;28;20514;-59
2022/10/23 02:50:09;;;;;;;5.93;4.40;;;9.10;96.50;;;;;;5028944;28;20448;-58
2022/10/23 02:52:49;;;;;;;5.43;4.37;;;9.00;96.40;;;;;;5037043;28;20452;-60
2022/10/23 02:55:43;;;;;;;5.03;4.23;;;9.00;96.50;;;;;;5033800;28;20469;-61
2022/10/23 02:58:30;;;;;;;6.57;4.23;;;9.10;96.50;;;;;;5033993;28;20433;-62
2022/10/23 03:01:04;;;;;;;7.90;4.30;;;9.10;96.40;;;;;;5037528;28;20430;-62
2022/10/23 03:03:39;;;;;;;6.00;4.33;;;9.10;96.40;;;;;;5042822;28;20437;-62
2022/10/23 03:06:05;;;;;;;9.90;4.57;;;9.10;96.50;;;;;;5037976;28;20429;-62
2022/10/23 03:08:41;;;;;;;5.50;3.87;;;9.10;96.40;;;;;;5029286;28;20457;-62
2022/10/23 03:11:06;;;;;;;7.27;4.80;;;9.10;96.40;;;;;;5036193;28;20433;-61
2022/10/23 03:13:32;;;;;;;5.23;4.43;;;9.10;96.40;;;;;;5030651;28;20499;-61
2022/10/23 03:15:58;;;;;;;7.90;4.63;;;9.10;96.40;;;;;;5019255;28;20214;-61
2022/10/23 03:18:23;;;;;;;4.77;3.97;;;9.00;96.40;;;;;;5033270;28;20198;-61
2022/10/23 03:20:49;;;;;;;5.33;4.10;;;8.90;96.40;;;;;;5033672;28;20286;-60
2022/10/23 03:23:14;;;;;;;6.63;4.20;;;8.90;96.40;;;;;;5018105;28;20183;-61
2022/10/23 03:25:40;;;;;;;5.63;4.73;;;9.00;96.40;;;;;;5050610;28;20205;-61
2022/10/23 03:28:06;;;;;;;5.23;4.33;;;9.00;96.40;;;;;;5046927;28;20221;-61
2022/10/23 03:30:31;;;;;;;4.67;4.23;;;9.00;96.40;;;;;;5046288;28;20191;-61
2022/10/23 03:32:57;;;;;;;5.60;5.10;;;9.00;96.40;;;;;;5006201;28;20225;-61
2022/10/23 03:35:23;;;;;;;10.03;6.37;;;9.00;96.40;;;;;;5032513;28;20203;-61
2022/10/23 03:37:49;;;;;;;6.23;5.07;;;9.00;96.40;;;;;;5019342;28;20187;-61
2022/10/23 03:40:14;;;;;;;6.97;4.73;;;9.10;96.40;;;;;;5018514;28;20187;-61
2022/10/23 03:42:40;;;;;;;5.20;4.60;;;8.90;96.40;;;;;;5012788;28;20198;-61
2022/10/23 03:45:06;;;;;;;7.10;4.93;;;8.90;96.50;;;;;;5020676;28;20337;-61
2022/10/23 03:47:34;;;;;;;9.33;5.30;;;9.00;96.50;;;;;;5023179;28;20657;-61
2022/10/23 03:50:00;;;;;;;5.27;4.30;;;9.00;96.50;;;;;;5048977;28;20438;-61
2022/10/23 03:52:26;;;;;;;5.73;4.23;;;9.00;96.50;;;;;;5045726;28;20978;-61
2022/10/23 03:54:52;;;;;;;4.80;4.30;;;9.00;96.40;;;;;;5018027;28;20462;-61
2022/10/23 03:57:17;;;;;;;5.50;4.40;;;9.00;96.40;;;;;;5033259;28;20294;-62
2022/10/23 03:59:43;;;;;;;4.80;4.30;;;9.00;96.40;;;;;;4988977;28;20199;-62
2022/10/23 04:02:09;;;;;;;6.70;4.00;;;8.90;96.30;;;;;;5018201;28;20195;-62
2022/10/23 04:04:35;;;;;;;8.00;3.87;;;8.90;96.30;;;;;;5059745;28;20183;-62
2022/10/23 04:07:00;;;;;;;4.77;4.33;;;8.50;95.90;;;;;;5053651;28;20540;-62
2022/10/23 04:09:26;;;;;;;11.17;6.47;;;8.40;96.10;;;;;;5018603;28;20187;-62
2022/10/23 04:11:54;;;;;;;8.07;4.80;;;8.60;96.30;;;;;;5020301;28;20221;-61
2022/10/23 04:14:19;;;;;;;6.50;5.00;;;8.60;96.30;;;;;;5034113;28;20270;-61
2022/10/23 04:16:45;;;;;;;6.13;4.17;;;8.70;96.30;;;;;;5022240;28;20556;-61
2022/10/23 04:19:11;;;;;;;5.60;4.30;;;8.70;96.20;;;;;;5015686;28;20212;-61
2022/10/23 04:21:36;;;;;;;4.57;3.53;;;8.70;96.20;;;;;;5024547;28;20183;-61
2022/10/23 04:24:02;;;;;;;5.17;4.00;;;8.70;96.20;;;;;;5015155;28;20190;-61
2022/10/23 04:26:28;;;;;;;6.07;4.53;;;8.70;96.20;;;;;;5016723;28;20294;-61
2022/10/23 04:28:54;;;;;;;7.37;4.33;;;8.70;96.20;;;;;;5020870;28;20198;-61
2022/10/23 04:31:19;;;;;;;4.20;3.90;;;8.60;96.10;;;;;;5024148;28;20199;-61
2022/10/23 04:33:45;;;;;;;4.70;4.30;;;8.70;96.20;;;;;;5033723;28;20204;-61
2022/10/23 04:36:11;;;;;;;4.97;4.20;;;8.70;96.20;;;;;;5020351;28;20242;-61
2022/10/23 04:38:36;;;;;;;9.97;4.60;;;8.70;96.10;;;;;;5020375;28;20194;-61
2022/10/23 04:41:02;;;;;;;9.07;4.33;;;8.70;96.10;;;;;;5022579;28;20191;-60
2022/10/23 04:43:28;;;;;;;5.70;4.27;;;8.70;96.10;;;;;;5058753;28;20278;-60
2022/10/23 04:45:53;;;;;;;4.93;3.90;;;8.70;96.10;;;;;;5024377;28;20249;-60
2022/10/23 04:48:19;;;;;;;5.33;4.03;;;8.50;96.10;;;;;;5022752;28;20230;-60
2022/10/23 04:50:55;;;;;;;6.00;4.07;;;8.50;96.10;;;;;;5025978;28;20198;-61
2022/10/23 04:53:20;;;;;;;5.00;4.30;;;8.60;96.10;;;;;;5022591;28;20194;-61
2022/10/23 04:55:51;;;;;;;7.80;4.37;;;8.60;96.00;;;;;;5020597;28;20489;-61
2022/10/23 04:58:18;;;;;;;4.40;4.00;;;8.50;96.00;;;;;;5021098;28;20309;-61
2022/10/23 05:00:44;;;;;;;7.00;3.30;;;8.50;96.00;;;;;;5019804;28;20433;-61
2022/10/23 05:03:10;;;;;;;4.67;3.83;;;8.50;96.00;;;;;;5026579;28;20936;-60
2022/10/23 05:05:35;;;;;;;6.50;4.13;;;8.50;95.90;;;;;;5019663;28;20429;-60
2022/10/23 05:08:01;;;;;;;4.67;3.80;;;8.40;95.90;;;;;;5055797;28;20205;-60
2022/10/23 05:10:28;;;;;;;6.10;4.07;;;8.50;95.90;;;;;;5026085;28;20226;-60
2022/10/23 05:12:53;;;;;;;6.87;3.07;;;8.20;95.80;;;;;;5039503;28;20198;-61
2022/10/23 05:15:19;;;;;;;9.07;4.17;;;8.30;95.90;;;;;;5019436;28;20472;-61
2022/10/23 05:17:48;;;;;;;4.27;3.50;;;8.30;95.90;;;;;;5019081;28;20210;-61
2022/10/23 05:20:17;;;;;;;7.87;3.73;;;8.30;96.00;;;;;;5029416;28;20195;-61
2022/10/23 05:22:44;;;;;;;7.30;4.30;;;8.30;96.00;;;;;;5035797;28;20483;-61
2022/10/23 05:25:12;;;;;;;8.77;4.17;;;8.40;96.10;;;;;;5029940;28;20425;-61
2022/10/23 05:27:38;;;;;;;4.80;3.63;;;8.40;96.10;;;;;;5045239;28;20422;-61
2022/10/23 05:30:04;;;;;;;4.33;3.93;;;8.50;96.10;;;;;;5019647;28;20437;-61
2022/10/23 05:32:31;;;;;;;5.13;4.40;;;8.60;96.10;;;;;;5025798;28;20190;-60
2022/10/23 05:35:00;;;;;;;7.60;4.20;;;8.50;96.10;;;;;;5025957;28;20431;-60
2022/10/23 05:37:25;;;;;;;5.57;4.23;;;8.60;96.20;;;;;;5003242;28;20609;-60
2022/10/23 05:39:51;;;;;;;4.60;4.03;;;8.60;96.20;;;;;;5019320;28;20446;-59
2022/10/23 05:42:17;;;;;;;4.53;3.80;;;8.70;96.20;;;;;;5017203;28;20225;-60
2022/10/23 05:44:42;;;;;;;6.53;4.10;;;8.70;96.20;;;;;;5016467;28;20192;-60
2022/10/23 05:47:08;;;;;;;7.97;4.70;;;8.80;96.20;;;;;;5059115;28;20199;-60
2022/10/23 05:49:34;;;;;;;5.27;4.20;;;8.70;96.20;;;;;;5029636;28;20202;-60
2022/10/23 05:52:00;;;;;;;5.57;4.47;;;8.80;96.20;;;;;;5017260;28;20196;-60
2022/10/23 05:54:26;;;;;;;11.00;3.43;;;8.80;96.20;;;;;;5034106;28;20351;-60
2022/10/23 05:56:51;;;;;;;4.07;3.67;;;8.80;96.20;;;;;;5052402;28;20272;-60
2022/10/23 05:59:17;;;;;;;6.23;4.03;;;8.70;96.20;;;;;;5050956;28;20195;-60
2022/10/23 06:01:43;;;;;;;6.67;4.10;;;8.80;96.20;;;;;;5023528;28;20184;-60
2022/10/23 06:04:08;;;;;;;4.23;3.70;;;8.80;96.20;;;;;;5039492;28;20191;-60
2022/10/23 06:06:35;;;;;;;5.33;4.43;;;8.80;96.30;;;;;;5020453;28;20203;-60
2022/10/23 06:09:02;;;;;;;6.10;4.50;;;8.90;96.30;;;;;;5060120;28;20203;-59
2022/10/23 06:11:28;;;;;;;9.13;4.17;;;8.90;96.20;;;;;;5018741;28;20584;-60
2022/10/23 06:13:53;;;;;;;4.37;3.90;;;8.90;96.20;;;;;;5013011;28;20493;-59
2022/10/23 06:16:23;;;;;;;4.47;4.07;;;8.90;96.20;;;;;;5023903;28;20214;-58
2022/10/23 06:18:49;;;;;;;4.93;3.67;;;8.90;96.20;;;;;;5027784;28;20187;-58
2022/10/23 06:21:15;;;;;;;5.40;4.30;;;8.90;96.20;;;;;;5050992;28;20436;-59
2022/10/23 06:23:42;;;;;;;5.37;4.10;;;8.80;96.20;;;;;;5028468;28;20276;-58
2022/10/23 06:26:11;;;;;;;6.13;3.97;;;8.80;96.10;;;;;;5044285;28;20438;-59
2022/10/23 06:28:37;;;;;;;4.40;3.93;;;8.80;96.10;;;;;;5029426;28;20445;-59
2022/10/23 06:31:04;;;;;;;4.23;3.40;;;8.80;96.10;;;;;;5035715;28;20429;-60
2022/10/23 06:33:30;;;;;;;6.70;3.50;;;8.80;96.10;;;;;;5018606;28;20484;-60
2022/10/23 06:35:56;;;;;;;4.60;4.20;;;8.80;96.10;;;;;;5017739;28;20474;-60
2022/10/23 06:38:22;;;;;;;5.70;3.90;;;8.90;96.20;;;;;;5018226;28;20227;-60
2022/10/23 06:40:55;;;;;;;10.03;4.30;;;9.00;96.20;;;;;;5021834;28;20187;-60
2022/10/23 06:43:21;;;;;;;4.13;3.73;;;8.90;96.20;;;;;;5021394;28;20199;-60
2022/10/23 06:46:09;;;;;;;5.57;4.57;;;9.00;96.20;;;;;;5047682;28;20539;-60
2022/10/23 06:48:35;;;;;;;4.83;4.37;;;9.10;96.30;;;;;;5051544;28;20199;-60
2022/10/23 06:51:09;;;;;;;5.00;3.60;;;9.20;96.30;;;;;;5030253;28;20496;-60
2022/10/23 06:53:37;;;;;;;5.10;4.30;;;9.30;96.30;;;;;;5049669;28;20194;-60
2022/10/23 06:56:05;;;;;;;6.47;4.60;;;9.30;96.30;;;;;;5047341;28;20486;-60
2022/10/23 06:58:32;;;;;;;4.60;3.93;;;9.30;96.30;;;;;;5014615;28;20184;-60
2022/10/23 07:01:03;;;;;;;6.93;4.20;;;9.50;96.40;;;;;;5013962;28;20469;-60
2022/10/23 07:03:28;;;;;;;5.30;4.90;;;9.50;96.40;;;;;;5027015;28;20218;-60
2022/10/23 07:05:54;;;;;;;5.73;4.50;;;9.60;96.40;;;;;;5011013;28;20199;-58
2022/10/23 07:08:20;;;;;;;4.73;4.30;;;9.70;96.40;;;;;;4999331;28;20192;-58
2022/10/23 07:10:47;;;;;;;5.20;4.70;;;9.70;96.50;;;;;;5010033;28;20195;-59
2022/10/23 07:13:13;;;;;;;4.27;3.77;;;9.70;96.50;;;;;;5023763;28;20213;-58
2022/10/23 07:15:39;;;;;;;7.23;4.57;;;9.80;96.60;;;;;;5014074;28;20218;-58
2022/10/23 07:18:05;;;;;;;5.90;4.43;;;9.80;96.60;;;;;;4994797;28;20223;-58
2022/10/23 07:20:31;;;;;;;5.87;4.40;;;9.90;96.60;;;;;;4997804;28;20226;-58
2022/10/23 07:22:57;;;;;;;5.07;4.53;;;9.90;96.60;;;;;;5014692;28;20511;-58
2022/10/23 07:25:25;;;;;;;4.37;4.03;;;9.90;96.60;;;;;;5027533;28;20518;-58
2022/10/23 07:27:51;;;;;;;4.33;4.03;;;10.00;96.50;;;;;;5014107;28;20196;-58
2022/10/23 07:30:16;;;;;;;4.80;4.40;;;10.00;96.60;;;;;;5041306;28;20257;-58
2022/10/23 07:32:43;;;;;;;4.70;4.10;;;10.10;96.60;;;;;;5010866;28;20192;-58
2022/10/23 07:35:11;;;;;;;6.03;5.07;;;10.10;96.60;;;;;;5047005;28;20190;-58
2022/10/23 07:37:37;;;;;;;5.73;5.23;;;10.20;96.60;;;;;;5016971;28;20207;-58
2022/10/23 07:40:06;;;;;;;6.20;5.60;;;10.20;96.60;;;;;;4999106;28;20192;-58
2022/10/23 07:42:32;;;;;;;7.30;5.80;;;10.30;96.60;;;;;;5004734;28;20237;-58
2022/10/23 07:44:58;;;;;;;5.87;5.23;;;10.30;96.60;;;;;;5004874;28;20199;-59
2022/10/23 07:47:24;;;;;;;7.17;5.70;;;10.30;96.70;;;;;;4996673;28;20196;-58
2022/10/23 07:49:49;;;;;;;9.30;5.60;;;10.40;96.70;;;;;;5004698;28;20208;-59
2022/10/23 07:52:15;;;;;;;5.83;5.23;;;10.50;96.70;;;;;;4996101;28;20216;-58
2022/10/23 07:54:41;;;;;;;8.60;5.67;;;10.60;96.70;;;;;;5005351;28;20246;-59
2022/10/23 07:57:06;;;;;;;6.17;5.63;;;10.70;96.70;;;;;;5016111;28;20352;-59
2022/10/23 07:59:33;;;;;;;8.40;6.20;;;10.80;96.70;;;;;;5029974;28;20199;-59
2022/10/23 08:01:59;;;;;;;8.63;6.20;;;10.80;96.70;;;;;;5024071;28;20594;-59
2022/10/23 08:04:24;;;;;;;5.50;4.97;;;10.90;96.80;;;;;;5019970;28;20212;-59
2022/10/23 08:06:50;;;;;;;7.50;4.97;;;11.00;96.80;;;;;;5014170;28;20285;-59
2022/10/23 08:09:16;;;;;;;5.97;5.33;;;11.10;96.80;;;;;;5050485;28;20187;-59
2022/10/23 08:11:42;;;;;;;6.10;5.50;;;11.10;96.80;;;;;;5067517;28;20206;-59
2022/10/23 08:14:09;;;;;;;5.83;4.90;;;11.10;96.70;;;;;;5035676;28;20191;-60
2022/10/23 08:16:37;;;;;;;7.67;6.17;;;11.10;96.60;;;;;;5018046;28;20227;-59
2022/10/23 08:19:04;;;;;;;6.43;5.40;;;11.10;96.60;;;;;;5032014;28;20214;-59
2022/10/23 08:21:29;;;;;;;6.13;5.43;;;11.20;96.60;;;;;;5032948;28;20202;-59
2022/10/23 08:23:57;;;;;;;6.60;5.77;;;11.30;96.70;;;;;;5032390;28;20202;-59
2022/10/23 08:26:24;;;;;;;6.20;5.20;;;11.30;96.70;;;;;;5068743;28;20203;-57
2022/10/23 08:28:50;;;;;;;7.30;6.20;;;11.30;96.60;;;;;;5022197;28;20202;-58
2022/10/23 08:31:19;;;;;;;6.83;6.17;;;11.30;96.40;;;;;;5035520;28;20187;-59
2022/10/23 08:33:44;;;;;;;11.07;5.83;;;11.30;96.40;;;;;;5046024;28;20198;-59
2022/10/23 08:36:22;;;;;;;7.43;5.80;;;11.30;96.50;;;;;;5024699;28;20214;-59
2022/10/23 08:38:49;;;;;;;6.30;5.70;;;11.30;96.40;;;;;;5068569;28;20202;-59
2022/10/23 08:41:28;;;;;;;6.37;5.70;;;11.30;96.50;;;;;;5028918;28;20218;-59
2022/10/23 08:44:06;;;;;;;6.87;5.83;;;11.40;96.50;;;;;;5060654;28;20190;-58
2022/10/23 08:46:38;;;;;;;8.10;5.70;;;11.40;96.50;;;;;;5035448;28;20194;-59
2022/10/23 08:49:10;;;;;;;6.93;6.33;;;11.40;96.60;;;;;;5046445;28;20928;-57
2022/10/23 08:51:41;;;;;;;6.57;5.97;;;11.50;96.60;;;;;;5040999;28;20187;-58
2022/10/23 08:54:25;;;;;;;7.10;5.90;;;11.60;96.60;;;;;;5044994;28;20239;-58
2022/10/23 08:57:10;;;;;;;7.30;6.30;;;11.60;96.60;;;;;;5077211;28;20258;-58
2022/10/23 08:59:39;;;;;;;6.40;5.90;;;11.60;96.60;;;;;;5049455;28;20188;-59
2022/10/23 09:02:16;;;;;;;7.10;5.53;;;11.60;96.40;;;;;;5070557;28;20195;-58
2022/10/23 09:04:45;;;;;;;7.77;6.67;;;11.60;96.40;;;;;;5035276;28;20194;-58
2022/10/23 09:07:34;;;;;;;7.47;6.77;;;11.70;96.40;;;;;;5041280;28;20199;-59
2022/10/23 09:10:17;;;;;;;7.23;5.83;;;11.60;96.40;;;;;;5037668;28;20228;-58
2022/10/23 09:12:43;;;;;;;6.17;5.57;;;11.60;96.30;;;;;;5036065;28;20221;-59
2022/10/23 09:15:11;;;;;;;7.53;6.47;;;11.70;96.40;;;;;;5023969;28;20284;-58
2022/10/23 09:17:39;;;;;;;8.27;6.20;;;11.80;96.50;;;;;;5016624;28;20234;-58
2022/10/23 09:20:21;;;;;;;6.60;5.80;;;11.80;96.50;;;;;;5024847;28;20194;-58
2022/10/23 09:22:56;;;;;;;6.47;5.80;;;11.80;96.50;;;;;;5045214;28;20194;-58
2022/10/23 09:25:25;;;;;;;6.93;6.23;;;11.90;96.50;;;;;;5078406;28;20223;-59
2022/10/23 09:27:54;;;;;;;6.13;5.57;;;11.90;96.60;;;;;;5033856;28;20199;-59
2022/10/23 09:30:37;;;;;;;6.00;5.40;;;11.90;96.60;;;;;;5042166;28;20198;-58
2022/10/23 09:33:23;;;;;;;5.47;4.97;;;12.00;96.60;;;;;;5071186;28;20226;-60
2022/10/23 09:36:05;;;;;;;7.23;6.40;;;12.10;96.70;;;;;;5076451;28;20218;-60
2022/10/23 09:38:46;;;;;;;6.53;5.93;;;12.10;96.70;;;;;;5035843;28;20191;-60
2022/10/23 09:41:36;;;;;;;7.70;6.20;;;12.10;96.60;;;;;;5016624;28;20238;-60
2022/10/23 09:44:07;;;;;;;6.03;5.43;;;12.20;96.60;;;;;;5068076;28;20194;-60
2022/10/23 09:46:44;;;;;;;6.37;5.70;;;12.20;96.60;;;;;;5039510;28;20198;-61
2022/10/23 09:49:18;;;;;;;6.23;5.70;;;12.20;96.30;;;;;;5076818;28;20289;-60
2022/10/23 09:52:08;;;;;;;7.30;6.60;;;12.20;95.90;;;;;;5071549;28;20278;-60
2022/10/23 09:54:45;;;;;;;6.53;5.83;;;12.20;95.60;;;;;;5042526;28;20230;-60
2022/10/23 09:57:16;;;;;;;7.43;6.63;;;12.30;95.60;;;;;;5044205;28;20218;-59
2022/10/23 09:59:42;;;;;;;6.87;6.03;;;12.40;95.80;;;;;;5040198;28;20251;-59
2022/10/23 10:02:27;;;;;;;6.80;6.20;;;12.50;95.90;;;;;;5022237;28;20281;-59
2022/10/23 10:04:53;;;;;;;7.53;6.77;;;12.60;96.10;;;;;;5033924;28;20265;-59
2022/10/23 10:07:22;;;;;;;10.87;8.17;;;12.60;96.00;;;;;;5049870;28;20282;-59
2022/10/23 10:09:48;;;;;;;9.23;7.50;;;12.60;95.70;;;;;;5069302;28;20219;-59
2022/10/23 10:12:38;;;;;;;9.13;7.40;;;12.70;95.30;;;;;;5020026;28;20199;-59
2022/10/23 10:15:10;;;;;;;7.97;7.23;;;12.70;95.40;;;;;;5036836;28;20197;-59
2022/10/23 10:17:44;;;;;;;8.87;7.87;;;12.80;95.30;;;;;;5072091;28;20214;-59
2022/10/23 10:20:35;;;;;;;11.93;8.93;;;12.70;94.00;;;;;;5038248;28;20190;-59
2022/10/23 10:23:38;;;;;;;10.50;9.07;;;12.80;94.30;;;;;;5038992;28;20205;-59
2022/10/23 10:26:14;;;;;;;11.20;8.67;;;12.90;94.60;;;;;;5037843;28;20266;-59
2022/10/23 10:28:48;;;;;;;10.30;8.80;;;12.90;93.40;;;;;;5033560;28;20253;-59
2022/10/23 10:31:46;;;;;;;11.67;9.40;;;13.00;93.40;;;;;;5042003;28;20198;-59
2022/10/23 10:34:52;;;;;;;9.43;8.43;;;13.00;94.20;;;;;;5045098;28;20195;-59
2022/10/23 10:37:54;;;;;;;9.50;7.37;;;13.20;94.50;;;;;;4997665;28;20223;-59
2022/10/23 10:40:31;;;;;;;9.33;7.60;;;13.30;94.80;;;;;;5076628;28;20276;-59
2022/10/23 10:43:12;;;;;;;9.03;8.10;;;13.30;95.10;;;;;;5045226;28;20526;-59
2022/10/23 10:45:45;;;;;;;10.10;7.93;;;13.50;95.10;;;;;;5034361;28;20199;-59
2022/10/23 10:48:45;;;;;;;9.47;7.87;;;13.60;95.10;;;;;;5025796;28;20286;-59
2022/10/23 10:51:33;;;;;;;11.17;8.80;;;13.60;95.10;;;;;;5013725;28;20267;-59
2022/10/23 10:54:27;;;;;;;10.33;7.30;;;13.80;95.20;;;;;;5036858;28;20289;-59
2022/10/23 10:56:54;;;;;;;8.30;7.40;;;13.80;95.00;;;;;;5033096;28;20329;-59
2022/10/23 10:59:50;;;;;;;7.67;6.87;;;13.90;95.20;;;;;;5052763;28;20193;-59
2022/10/23 11:02:40;;;;;;;7.23;6.53;;;14.00;94.90;;;;;;5040528;28;20258;-59
2022/10/23 11:05:26;;;;;;;7.40;5.77;;;14.10;94.80;;;;;;5032185;28;20191;-59
2022/10/23 11:07:58;;;;;;;5.83;5.33;;;14.20;93.60;;;;;;5069859;28;20192;-59
2022/10/23 11:10:25;;;;;;;7.47;6.53;;;14.30;94.60;;;;;;5047969;28;20186;-59
2022/10/23 11:12:51;;;;;;;7.00;6.30;;;14.30;93.80;;;;;;5034928;28;20187;-59
2022/10/23 11:15:23;;;;;;;9.73;6.77;;;14.50;91.80;;;;;;5043970;28;20198;-57
2022/10/23 11:18:02;;;;;;;7.57;6.10;;;14.50;93.10;;;;;;5034398;28;20215;-55
2022/10/23 11:20:31;;;;;;;5.67;5.13;;;14.60;93.10;;;;;;5038667;28;20184;-57
2022/10/23 11:23:05;;;;;;;4.80;4.40;;;14.80;92.50;;;;;;5036202;28;20192;-57
2022/10/23 11:25:43;;;;;;;4.63;4.23;;;14.90;89.70;;;;;;5040612;28;20180;-57
2022/10/23 11:28:55;;;;;;;4.93;4.07;;;15.00;91.70;;;;;;5029757;28;20194;-58
2022/10/23 11:31:24;;;;;;;4.47;3.50;;;15.00;89.30;;;;;;5069898;28;20282;-57
2022/10/23 11:33:58;;;;;;;3.97;3.57;;;15.00;88.40;;;;;;5033843;28;20202;-58
2022/10/23 11:36:52;;;;;;;5.53;4.13;;;15.10;89.90;;;;;;5041926;28;20229;-58
2022/10/23 11:39:26;;;;;;;4.10;3.80;;;15.30;88.00;;;;;;5073961;28;20191;-58
2022/10/23 11:41:54;;;;;;;5.43;4.60;;;15.30;87.40;;;;;;5026368;28;20190;-58
2022/10/23 11:44:44;;;;;;;5.00;4.17;;;15.30;87.20;;;;;;5033649;28;20191;-60
2022/10/23 11:47:27;;;;;;;4.60;4.03;;;15.40;89.40;;;;;;5078850;28;20194;-60
2022/10/23 11:50:08;;;;;;;5.43;4.80;;;15.40;85.40;;;;;;5032506;28;20263;-60
2022/10/23 11:52:55;;;;;;;6.40;4.30;;;15.40;86.80;;;;;;5068591;28;20193;-60
2022/10/23 11:55:24;;;;;;;5.33;3.93;;;15.50;89.40;;;;;;5035560;28;20238;-60
2022/10/23 11:58:21;;;;;;;5.73;3.90;;;15.70;84.80;;;;;;5029251;28;20220;-60
2022/10/23 12:01:04;;;;;;;5.20;4.70;;;15.60;88.20;;;;;;5032671;28;20229;-60
2022/10/23 12:03:39;;;;;;;4.47;4.07;;;15.70;87.60;;;;;;5034503;28;20179;-60
2022/10/23 12:06:06;;;;;;;4.87;4.40;;;15.80;84.90;;;;;;5022112;28;20230;-60
2022/10/23 12:08:36;;;;;;;4.73;4.20;;;15.80;86.30;;;;;;5032792;28;20206;-60
2022/10/23 12:11:02;;;;;;;3.70;3.40;;;15.90;83.80;;;;;;5024280;28;20227;-60
2022/10/23 12:13:37;;;;;;;4.90;4.30;;;16.00;87.60;;;;;;5026080;28;20216;-60
2022/10/23 12:16:06;;;;;;;5.60;4.63;;;16.00;87.90;;;;;;5025917;28;20219;-60
2022/10/23 12:18:32;;;;;;;5.50;4.50;;;16.00;88.00;;;;;;5018458;28;20191;-60
2022/10/23 12:21:03;;;;;;;3.90;3.60;;;16.20;88.20;;;;;;5016407;28;20269;-60
2022/10/23 12:23:50;;;;;;;3.83;3.43;;;16.30;89.00;;;;;;5016639;28;20194;-60
2022/10/23 12:26:15;;;;;;;4.30;3.60;;;16.40;89.40;;;;;;5032495;28;20187;-60
2022/10/23 12:28:47;;;;;;;3.77;3.47;;;16.50;88.80;;;;;;5036971;28;20290;-60
2022/10/23 12:31:20;;;;;;;4.57;3.73;;;16.60;89.20;;;;;;5024196;28;20187;-60
2022/10/23 12:33:59;;;;;;;6.47;3.60;;;16.70;88.10;;;;;;5066018;28;20205;-60
2022/10/23 12:36:34;;;;;;;5.07;3.80;;;16.80;84.90;;;;;;5060809;28;20213;-60
2022/10/23 12:38:59;;;;;;;5.67;4.20;;;16.80;86.50;;;;;;5037046;28;20186;-60
2022/10/23 12:41:27;;;;;;;5.10;3.33;;;16.90;87.50;;;;;;5019729;28;20290;-60
2022/10/23 12:44:03;;;;;;;3.70;3.40;;;17.00;88.70;;;;;;5029508;28;20199;-60
2022/10/23 12:46:36;;;;;;;4.40;3.40;;;17.20;87.00;;;;;;5033749;28;20175;-60
2022/10/23 12:49:11;;;;;;;4.37;3.60;;;17.30;84.50;;;;;;5034957;28;20194;-59
2022/10/23 12:51:37;;;;;;;4.80;3.50;;;17.50;86.40;;;;;;5027502;28;20195;-59
2022/10/23 12:54:13;;;;;;;4.07;3.20;;;17.40;86.80;;;;;;5022148;28;20238;-60
2022/10/23 12:56:38;;;;;;;3.60;3.30;;;17.40;85.00;;;;;;5067427;28;20229;-59
2022/10/23 12:59:36;;;;;;;5.80;3.10;;;17.50;82.80;;;;;;5026940;28;20188;-60
2022/10/23 13:02:23;;;;;;;7.30;3.30;;;17.50;84.10;;;;;;5030110;28;20192;-60
2022/10/23 13:04:51;;;;;;;4.20;2.73;;;17.70;84.50;;;;;;5032992;28;20192;-60
2022/10/23 13:07:20;;;;;;;4.27;2.90;;;17.80;84.20;;;;;;5036274;28;20191;-61
2022/10/23 13:09:46;;;;;;;3.03;2.50;;;17.80;81.40;;;;;;5036391;28;20191;-60
2022/10/23 13:12:27;;;;;;;3.20;2.23;;;17.80;82.70;;;;;;5035250;28;20325;-60
2022/10/23 13:15:13;;;;;;;5.30;2.37;;;17.70;79.00;;;;;;5069377;28;20234;-60